TimeCDT,TemperatureF,Dew PointF,Humidity,Sea Level PressureIn,VisibilityMPH,Wind Direction,Wind SpeedMPH,Gust SpeedMPH,PrecipitationIn,Events,Conditions,WindDirDegrees,DateUTC
12:15 AM,26.6,19.4,74,30.00,10.0,Calm,Calm,-,N/A,,Clear,0,2013-03-22 05:15:00
12:35 AM,26.6,21.2,80,30.01,10.0,Calm,Calm,-,N/A,,Clear,0,2013-03-22 05:35:00
12:55 AM,26.6,21.2,80,30.01,10.0,Calm,Calm,-,N/A,,Clear,0,2013-03-22 05:55:00
1:15 AM,24.8,21.2,86,30.01,10.0,Calm,Calm,-,N/A,,Clear,0,2013-03-22 06:15:00
1:35 AM,24.8,21.2,86,30.01,10.0,Calm,Calm,-,N/A,,Clear,0,2013-03-22 06:35:00
1:55 AM,26.6,19.4,74,30.01,10.0,Calm,Calm,-,N/A,,Clear,0,2013-03-22 06:55:00
2:15 AM,26.6,21.2,80,30.00,10.0,ENE,3.5,-,N/A,,Clear,60,2013-03-22 07:15:00
2:35 AM,26.6,19.4,74,30.00,10.0,East,3.5,-,N/A,,Clear,100,2013-03-22 07:35:00
2:55 AM,28.4,19.4,69,30.00,10.0,Calm,Calm,-,N/A,,Clear,0,2013-03-22 07:55:00
3:15 AM,28.4,17.6,64,30.00,10.0,Calm,Calm,-,N/A,,Clear,0,2013-03-22 08:15:00
3:35 AM,28.4,17.6,64,30.00,10.0,Calm,Calm,-,N/A,,Scattered Clouds,0,2013-03-22 08:35:00
3:55 AM,28.4,17.6,64,30.00,10.0,Calm,Calm,-,N/A,,Overcast,0,2013-03-22 08:55:00
4:15 AM,28.4,17.6,64,29.99,10.0,Calm,Calm,-,N/A,,Overcast,0,2013-03-22 09:15:00
4:35 AM,30.2,17.6,60,29.99,10.0,SE,3.5,-,N/A,,Overcast,130,2013-03-22 09:35:00
4:55 AM,30.2,15.8,55,29.99,10.0,SE,4.6,-,N/A,,Overcast,130,2013-03-22 09:55:00
5:15 AM,30.2,17.6,60,30.00,10.0,Calm,Calm,-,N/A,,Overcast,0,2013-03-22 10:15:00
5:35 AM,30.2,17.6,60,29.99,10.0,Calm,Calm,-,N/A,,Overcast,0,2013-03-22 10:35:00
5:55 AM,30.2,17.6,60,30.00,10.0,Calm,Calm,-,N/A,,Overcast,0,2013-03-22 10:55:00
6:15 AM,30.2,17.6,60,29.99,10.0,Calm,Calm,-,N/A,,Mostly Cloudy,0,2013-03-22 11:15:00
6:55 AM,30.2,19.4,64,30.01,10.0,Calm,Calm,-,N/A,,Mostly Cloudy,0,2013-03-22 11:55:00
7:15 AM,30.2,19.4,64,30.01,10.0,SSW,3.5,-,N/A,,Mostly Cloudy,200,2013-03-22 12:15:00
7:35 AM,30.2,19.4,64,30.03,10.0,South,3.5,-,N/A,,Mostly Cloudy,190,2013-03-22 12:35:00
7:55 AM,30.2,19.4,64,30.03,10.0,South,3.5,-,N/A,,Overcast,190,2013-03-22 12:55:00
8:15 AM,30.2,19.4,64,30.04,10.0,Calm,Calm,-,N/A,,Mostly Cloudy,0,2013-03-22 13:15:00
8:35 AM,32.0,19.4,60,30.04,10.0,Calm,Calm,-,N/A,,Overcast,0,2013-03-22 13:35:00
8:55 AM,33.8,19.4,56,30.04,10.0,Calm,Calm,-,N/A,,Overcast,0,2013-03-22 13:55:00
9:15 AM,33.8,19.4,56,30.04,10.0,South,4.6,-,N/A,,Mostly Cloudy,180,2013-03-22 14:15:00
9:35 AM,33.8,19.4,56,30.03,10.0,South,4.6,-,N/A,,Mostly Cloudy,180,2013-03-22 14:35:00
9:55 AM,35.6,19.4,52,30.03,10.0,Calm,Calm,-,N/A,,Partly Cloudy,0,2013-03-22 14:55:00
10:15 AM,35.6,21.2,56,30.02,10.0,SSW,5.8,-,N/A,,Partly Cloudy,200,2013-03-22 15:15:00
10:35 AM,37.4,19.4,48,30.03,10.0,South,6.9,-,N/A,,Partly Cloudy,190,2013-03-22 15:35:00
10:55 AM,37.4,21.2,52,30.03,10.0,SSE,5.8,-,N/A,,Partly Cloudy,160,2013-03-22 15:55:00
11:15 AM,37.4,19.4,48,30.01,10.0,SSE,4.6,-,N/A,,Mostly Cloudy,150,2013-03-22 16:15:00
11:35 AM,39.2,17.6,42,30.02,10.0,Calm,Calm,-,N/A,,Mostly Cloudy,0,2013-03-22 16:35:00
11:55 AM,39.2,19.4,45,30.01,10.0,Calm,Calm,-,N/A,,Overcast,0,2013-03-22 16:55:00
12:15 PM,41.0,19.4,42,30.01,10.0,East,3.5,-,N/A,,Mostly Cloudy,100,2013-03-22 17:15:00
12:35 PM,41.0,19.4,42,30.02,10.0,SSE,3.5,-,N/A,,Mostly Cloudy,160,2013-03-22 17:35:00
12:55 PM,41.0,19.4,42,30.02,10.0,Calm,Calm,-,N/A,,Overcast,0,2013-03-22 17:55:00
1:15 PM,42.8,19.4,39,30.01,10.0,Variable,6.9,-,N/A,,Overcast,0,2013-03-22 18:15:00
1:35 PM,42.8,21.2,42,30.01,10.0,SSW,4.6,-,N/A,,Overcast,200,2013-03-22 18:35:00
1:55 PM,42.8,21.2,42,30.00,10.0,Variable,4.6,-,N/A,,Mostly Cloudy,0,2013-03-22 18:55:00
2:15 PM,42.8,21.2,42,30.00,10.0,South,4.6,-,N/A,,Partly Cloudy,180,2013-03-22 19:15:00
2:35 PM,44.6,19.4,37,29.99,10.0,Calm,Calm,-,N/A,,Clear,0,2013-03-22 19:35:00
2:55 PM,42.8,19.4,39,29.99,10.0,Calm,Calm,-,N/A,,Mostly Cloudy,0,2013-03-22 19:55:00
3:15 PM,44.6,21.2,39,29.98,10.0,Calm,Calm,-,N/A,,Mostly Cloudy,0,2013-03-22 20:15:00
3:35 PM,44.6,21.2,39,29.97,10.0,Calm,Calm,-,N/A,,Mostly Cloudy,0,2013-03-22 20:35:00
3:55 PM,44.6,21.2,39,29.97,10.0,Calm,Calm,-,N/A,,Mostly Cloudy,0,2013-03-22 20:55:00
4:15 PM,44.6,21.2,39,29.97,10.0,Calm,Calm,-,N/A,,Scattered Clouds,0,2013-03-22 21:15:00
4:35 PM,44.6,23.0,43,29.97,10.0,Calm,Calm,-,N/A,,Scattered Clouds,0,2013-03-22 21:35:00
4:55 PM,44.6,23.0,43,29.97,10.0,Calm,Calm,-,N/A,,Mostly Cloudy,0,2013-03-22 21:55:00
5:15 PM,44.6,23.0,43,29.97,10.0,Calm,Calm,-,N/A,,Mostly Cloudy,0,2013-03-22 22:15:00
5:35 PM,44.6,24.8,46,29.97,10.0,Calm,Calm,-,N/A,,Mostly Cloudy,0,2013-03-22 22:35:00
5:55 PM,44.6,24.8,46,29.97,10.0,Calm,Calm,-,N/A,,Overcast,0,2013-03-22 22:55:00
6:15 PM,44.6,24.8,46,29.97,10.0,North,3.5,-,N/A,,Overcast,360,2013-03-22 23:15:00
6:35 PM,44.6,24.8,46,29.97,10.0,Calm,Calm,-,N/A,,Overcast,0,2013-03-22 23:35:00
6:55 PM,44.6,24.8,46,29.98,10.0,Calm,Calm,-,N/A,,Overcast,0,2013-03-22 23:55:00
7:15 PM,44.6,28.4,53,29.99,10.0,Calm,Calm,-,N/A,,Overcast,0,2013-03-23 00:15:00
7:35 PM,44.6,26.6,49,29.99,10.0,Calm,Calm,-,N/A,,Overcast,0,2013-03-23 00:35:00
7:55 PM,42.8,28.4,57,30.00,10.0,Calm,Calm,-,N/A,,Mostly Cloudy,0,2013-03-23 00:55:00
8:15 PM,42.8,26.6,53,29.99,10.0,Calm,Calm,-,N/A,,Mostly Cloudy,0,2013-03-23 01:15:00
8:35 PM,42.8,28.4,57,30.00,10.0,Calm,Calm,-,N/A,,Mostly Cloudy,0,2013-03-23 01:35:00
8:55 PM,42.8,28.4,57,30.00,10.0,Calm,Calm,-,N/A,,Mostly Cloudy,0,2013-03-23 01:55:00
9:15 PM,41.0,28.4,61,29.99,10.0,NE,4.6,-,N/A,,Mostly Cloudy,50,2013-03-23 02:15:00
9:35 PM,42.8,28.4,57,30.00,10.0,Calm,Calm,-,N/A,,Overcast,0,2013-03-23 02:35:00
9:55 PM,41.0,30.2,65,30.00,10.0,Calm,Calm,-,N/A,,Mostly Cloudy,0,2013-03-23 02:55:00
10:15 PM,41.0,30.2,65,30.00,10.0,Calm,Calm,-,N/A,,Mostly Cloudy,0,2013-03-23 03:15:00
10:35 PM,41.0,28.4,61,30.00,10.0,Calm,Calm,-,N/A,,Overcast,0,2013-03-23 03:35:00
10:55 PM,42.8,28.4,57,29.99,10.0,SE,3.5,-,N/A,,Mostly Cloudy,130,2013-03-23 03:55:00
11:15 PM,42.8,28.4,57,29.98,10.0,ESE,4.6,-,N/A,,Mostly Cloudy,120,2013-03-23 04:15:00
11:35 PM,42.8,28.4,57,29.98,10.0,ESE,3.5,-,N/A,,Overcast,120,2013-03-23 04:35:00
11:55 PM,42.8,28.4,57,29.99,10.0,Calm,Calm,-,N/A,,Overcast,0,2013-03-23 04:55:00